Terminal Aerodrome Forecast
Issued by NWS Los Angeles, CA

Home | Current Version | Previous Version | Text Only | Print | Product List | Glossary On
Versions: 1 2 3 4 5 6 7 8 9 10 11 12 13 14 15 16 17 18 19 20 21 22 23 24 25 26 27 28 29
000
FTUS46 KLOX 251513 AAC
TAFSMX
TAF AMD
KSMX 251513Z 2515/2612 VRB03KT 6SM BR OVC003
     FM251700 VRB03KT P6SM OVC006
     FM252000 30008KT P6SM SCT008
     FM260400 VRB03KT P6SM OVC007
     FM260900 VRB03KT P6SM OVC003=

USA.gov is the U.S. government's official web portal to all federal, state and local government web resources and services.